Time;durP1;ratioP1;P1;durP2;ratioP2;P2;SDS_P1;SDS_P2;PMS_P1;PMS_P2;Temp;Humidity;BMP_temperature;BMP_pressure;BME280_temperature;BME280_humidity;BME280_pressure;Samples;Min_cycle;Max_cycle;Signal;HPM_P1;HPM_P2
2022/11/17 00:00:09;;;;;;;6.95;2.35;;;11.30;92.20;;;;;;5055890;28;20102;-73
2022/11/17 00:02:35;;;;;;;5.93;2.80;;;11.30;92.20;;;;;;5021840;28;20036;-73
2022/11/17 00:05:01;;;;;;;6.32;2.92;;;11.30;92.20;;;;;;5055772;28;20056;-73
2022/11/17 00:07:27;;;;;;;6.15;2.80;;;11.30;92.20;;;;;;5055678;28;20034;-73
2022/11/17 00:09:52;;;;;;;7.72;2.33;;;11.30;92.20;;;;;;5021979;28;20093;-73
2022/11/17 00:15:02;;;;;;;5.50;2.42;;;11.40;92.20;;;;;;5055741;28;20044;-73
2022/11/17 00:17:27;;;;;;;5.22;2.47;;;11.40;92.20;;;;;;5038066;28;20092;-73
2022/11/17 00:22:37;;;;;;;6.45;2.45;;;11.40;92.20;;;;;;5040677;28;20115;-73
2022/11/17 00:25:03;;;;;;;3.95;2.53;;;11.50;92.10;;;;;;5055404;28;20034;-73
2022/11/17 00:27:28;;;;;;;8.23;2.58;;;11.40;92.30;;;;;;5054195;28;20029;-74
2022/11/17 00:29:55;;;;;;;6.95;2.60;;;11.40;92.30;;;;;;5021414;28;20021;-73
2022/11/17 00:35:05;;;;;;;6.95;2.55;;;11.40;92.30;;;;;;5040624;28;20044;-73
2022/11/17 00:37:35;;;;;;;7.72;2.30;;;11.40;92.20;;;;;;5037742;28;20037;-73
2022/11/17 00:40:01;;;;;;;5.15;2.40;;;11.40;92.30;;;;;;5055202;28;20021;-73
2022/11/17 00:42:27;;;;;;;4.60;2.08;;;11.40;92.30;;;;;;5055012;28;20033;-73
2022/11/17 00:44:52;;;;;;;4.43;2.40;;;11.40;92.40;;;;;;5037520;28;20037;-73
2022/11/17 00:47:18;;;;;;;5.72;2.10;;;11.40;92.50;;;;;;5037415;28;20049;-73
2022/11/17 00:49:43;;;;;;;4.20;2.00;;;11.30;92.40;;;;;;5054937;28;20029;-73
2022/11/17 00:52:09;;;;;;;5.35;2.08;;;11.40;92.50;;;;;;5054891;28;20026;-73
2022/11/17 00:54:35;;;;;;;5.20;2.00;;;11.40;92.50;;;;;;5054874;28;20024;-73
2022/11/17 00:57:01;;;;;;;4.05;2.13;;;11.40;92.40;;;;;;5037506;28;20025;-73
2022/11/17 00:59:26;;;;;;;3.45;1.92;;;11.40;92.90;;;;;;5054756;28;20037;-73
2022/11/17 01:01:52;;;;;;;5.13;2.15;;;11.40;92.40;;;;;;5037266;28;20041;-73
2022/11/17 01:04:18;;;;;;;4.20;1.85;;;11.40;92.30;;;;;;5037194;28;20048;-73
2022/11/17 01:06:46;;;;;;;5.97;1.90;;;11.40;92.40;;;;;;5054629;28;20025;-73
2022/11/17 01:09:20;;;;;;;3.75;1.80;;;11.40;92.60;;;;;;5054529;28;20017;-73
2022/11/17 01:11:48;;;;;;;3.40;1.90;;;11.40;92.50;;;;;;5054588;28;20055;-73
2022/11/17 01:14:23;;;;;;;3.95;2.33;;;11.40;92.40;;;;;;5054487;28;20048;-73
2022/11/17 01:16:49;;;;;;;4.35;2.10;;;11.40;92.50;;;;;;5054502;28;20076;-74
2022/11/17 01:19:16;;;;;;;4.25;1.73;;;11.40;92.40;;;;;;5054365;28;20477;-73
2022/11/17 01:21:42;;;;;;;2.55;1.52;;;11.40;92.50;;;;;;5054266;28;20048;-73
2022/11/17 01:24:10;;;;;;;2.50;1.80;;;11.40;92.70;;;;;;5036777;28;20025;-73
2022/11/17 01:26:36;;;;;;;4.28;1.83;;;11.40;92.80;;;;;;5054240;28;20018;-73
2022/11/17 01:29:03;;;;;;;4.00;2.00;;;11.40;92.80;;;;;;5054346;28;20425;-73
2022/11/17 01:31:33;;;;;;;3.88;1.77;;;11.40;92.90;;;;;;5054173;28;20089;-73
2022/11/17 01:33:59;;;;;;;5.22;2.20;;;11.30;93.00;;;;;;5054115;28;20021;-73
2022/11/17 01:36:29;;;;;;;5.07;1.77;;;11.30;93.00;;;;;;5054095;28;20109;-73
2022/11/17 01:38:55;;;;;;;4.05;1.92;;;11.30;93.10;;;;;;5053696;28;20373;-73
2022/11/17 01:41:24;;;;;;;3.35;2.08;;;11.30;93.00;;;;;;5053910;28;20025;-73
2022/11/17 01:43:57;;;;;;;3.78;1.95;;;11.30;93.00;;;;;;5053928;28;20083;-73
2022/11/17 01:46:36;;;;;;;2.42;1.63;;;11.40;93.10;;;;;;5053753;28;20060;-73
2022/11/17 01:49:19;;;;;;;2.88;1.50;;;11.40;93.00;;;;;;5036299;28;20017;-73
2022/11/17 01:51:49;;;;;;;2.50;1.70;;;11.40;92.90;;;;;;5053833;28;20030;-73
2022/11/17 01:54:18;;;;;;;4.95;1.85;;;11.40;92.90;;;;;;5053809;28;20025;-73
2022/11/17 01:56:47;;;;;;;7.28;2.28;;;11.40;92.70;;;;;;5053697;28;20100;-73
2022/11/17 01:59:25;;;;;;;3.03;1.80;;;11.50;92.60;;;;;;5053686;28;20051;-73
2022/11/17 02:01:55;;;;;;;4.22;1.98;;;11.50;92.40;;;;;;5053600;28;20040;-73
2022/11/17 02:04:28;;;;;;;3.97;1.98;;;11.50;92.40;;;;;;5053783;28;20017;-73
2022/11/17 02:07:04;;;;;;;3.88;1.50;;;11.50;92.30;;;;;;5053598;28;20049;-73
2022/11/17 02:09:32;;;;;;;2.45;1.45;;;11.60;92.00;;;;;;5053463;28;20022;-74
2022/11/17 02:11:58;;;;;;;4.63;1.50;;;11.60;92.10;;;;;;5053453;28;20025;-74
2022/11/17 02:14:23;;;;;;;2.45;1.50;;;11.60;92.00;;;;;;5053565;28;20048;-73
2022/11/17 02:16:49;;;;;;;3.42;1.40;;;11.60;91.90;;;;;;5035994;28;20029;-73
2022/11/17 02:19:16;;;;;;;2.67;1.40;;;11.60;92.00;;;;;;5053373;28;20025;-74
2022/11/17 02:21:50;;;;;;;4.70;1.70;;;11.60;91.90;;;;;;5053288;28;20030;-74
2022/11/17 02:24:30;;;;;;;5.57;1.70;;;11.60;92.00;;;;;;5053499;28;20361;-73
2022/11/17 02:27:14;;;;;;;4.75;1.70;;;11.60;91.90;;;;;;5053309;28;20026;-74
2022/11/17 02:29:53;;;;;;;3.88;1.55;;;11.70;91.80;;;;;;5053274;28;20040;-73
2022/11/17 02:32:48;;;;;;;3.50;1.58;;;11.70;91.80;;;;;;5053384;28;20081;-73
2022/11/17 02:35:26;;;;;;;2.55;1.75;;;11.70;91.70;;;;;;5035742;28;20036;-74
2022/11/17 02:38:00;;;;;;;3.85;1.40;;;11.70;91.60;;;;;;5053170;28;20021;-73
2022/11/17 02:40:33;;;;;;;1.20;0.90;;;11.80;91.40;;;;;;5053251;28;20052;-73
2022/11/17 02:46:05;;;;;;;2.55;1.20;;;11.80;91.30;;;;;;5053122;28;20092;-73
2022/11/17 02:48:39;;;;;;;2.42;1.02;;;11.80;91.20;;;;;;5053111;28;20033;-73
2022/11/17 02:51:09;;;;;;;2.50;1.02;;;11.80;91.30;;;;;;5055592;28;20025;-73
2022/11/17 02:53:37;;;;;;;3.03;1.40;;;11.80;91.30;;;;;;5057180;28;20033;-73
2022/11/17 02:56:03;;;;;;;4.68;1.50;;;11.80;91.20;;;;;;5057113;28;20064;-73
2022/11/17 02:58:28;;;;;;;2.58;1.40;;;11.70;91.30;;;;;;5057068;28;20033;-74
2022/11/17 03:00:59;;;;;;;5.47;1.45;;;11.70;91.30;;;;;;5056910;28;20038;-74
2022/11/17 03:03:57;;;;;;;3.65;1.60;;;11.70;91.40;;;;;;5039500;28;20026;-74
2022/11/17 03:06:38;;;;;;;7.55;1.60;;;11.70;91.20;;;;;;5043724;28;20515;-73
2022/11/17 03:09:19;;;;;;;2.65;1.40;;;11.70;91.30;;;;;;5056825;28;20025;-74
2022/11/17 03:11:49;;;;;;;5.28;1.48;;;11.60;91.40;;;;;;5056698;28;20036;-74
2022/11/17 03:14:45;;;;;;;2.05;1.05;;;11.60;91.30;;;;;;5056822;28;20088;-74
2022/11/17 03:17:31;;;;;;;2.47;1.17;;;11.60;91.30;;;;;;5056893;28;20093;-74
2022/11/17 03:20:17;;;;;;;3.97;1.42;;;11.60;91.30;;;;;;5056699;28;20140;-74
2022/11/17 03:22:55;;;;;;;3.95;1.17;;;11.60;91.30;;;;;;5056692;28;20024;-74
2022/11/17 03:25:22;;;;;;;2.08;0.90;;;11.60;91.40;;;;;;5056732;28;20073;-73
2022/11/17 03:27:53;;;;;;;1.92;0.80;;;11.60;91.40;;;;;;5056517;28;20022;-74
2022/11/17 03:30:21;;;;;;;4.25;1.00;;;11.60;91.50;;;;;;5056502;28;20073;-73
2022/11/17 03:32:57;;;;;;;3.42;0.90;;;11.60;91.60;;;;;;5056396;28;20054;-74
2022/11/17 03:35:28;;;;;;;2.78;0.60;;;11.60;91.50;;;;;;5056560;28;20028;-73
2022/11/17 03:38:00;;;;;;;0.70;0.35;;;11.60;91.50;;;;;;5056349;28;20031;-73
2022/11/17 03:40:28;;;;;;;1.02;0.57;;;11.60;91.50;;;;;;5056284;28;20021;-74
2022/11/17 03:42:58;;;;;;;1.08;0.43;;;11.60;91.50;;;;;;5056230;28;20029;-74
2022/11/17 03:45:27;;;;;;;1.30;0.40;;;11.60;91.40;;;;;;5055995;28;20029;-74
2022/11/17 03:48:06;;;;;;;1.27;0.60;;;11.70;91.40;;;;;;5038668;28;20030;-73
2022/11/17 03:51:08;;;;;;;0.82;0.43;;;11.70;91.40;;;;;;5056140;28;20030;-73
2022/11/17 03:53:34;;;;;;;0.60;0.45;;;11.70;91.50;;;;;;5002041;28;20041;-73
2022/11/17 03:56:22;;;;;;;1.58;0.50;;;11.60;91.50;;;;;;5038461;28;20036;-73
2022/11/17 03:58:55;;;;;;;3.60;0.90;;;11.60;91.60;;;;;;5055949;28;20025;-74
2022/11/17 04:01:21;;;;;;;1.63;0.88;;;11.60;91.70;;;;;;5055656;28;20081;-74
2022/11/17 04:03:47;;;;;;;2.47;1.27;;;11.60;91.80;;;;;;5055860;28;20033;-71
2022/11/17 04:06:13;;;;;;;1.92;1.20;;;11.60;91.80;;;;;;5038359;28;20029;-71
2022/11/17 04:08:38;;;;;;;2.97;1.42;;;11.60;91.80;;;;;;5055670;28;20080;-71
2022/11/17 04:16:32;;;;;;;3.65;1.45;;;11.60;91.80;;;;;;5040968;28;20113;-71
2022/11/17 04:18:58;;;;;;;1.65;1.30;;;11.60;91.80;;;;;;5055564;28;20030;-72
2022/11/17 04:21:23;;;;;;;2.90;1.50;;;11.60;91.80;;;;;;5038097;28;20026;-71
2022/11/17 04:23:49;;;;;;;3.28;1.58;;;11.60;91.80;;;;;;5055476;28;20025;-71
2022/11/17 04:28:59;;;;;;;3.25;1.92;;;11.60;91.80;;;;;;5055555;28;20031;-72
2022/11/17 04:31:27;;;;;;;2.90;2.00;;;11.60;91.80;;;;;;5055368;28;20026;-72
2022/11/17 04:34:02;;;;;;;2.63;2.22;;;11.60;91.80;;;;;;5055295;28;20053;-74
2022/11/17 04:36:45;;;;;;;5.65;2.20;;;11.60;91.80;;;;;;5037766;28;20030;-74
2022/11/17 04:39:12;;;;;;;2.47;1.80;;;11.70;91.80;;;;;;5055261;28;20029;-74
2022/11/17 04:42:02;;;;;;;2.60;1.70;;;11.70;91.70;;;;;;5055067;28;20056;-74
2022/11/17 04:44:29;;;;;;;3.85;1.40;;;11.70;91.80;;;;;;5055124;28;20022;-74
2022/11/17 04:46:56;;;;;;;1.25;1.02;;;11.70;91.80;;;;;;5054767;28;20042;-74
2022/11/17 04:49:23;;;;;;;2.03;1.00;;;11.60;91.80;;;;;;5055017;28;20041;-74
2022/11/17 04:51:50;;;;;;;4.60;1.10;;;11.60;91.90;;;;;;5054944;28;20029;-74
2022/11/17 04:54:18;;;;;;;1.48;1.02;;;11.70;91.80;;;;;;5037442;28;20033;-74
2022/11/17 04:56:45;;;;;;;2.17;1.10;;;11.70;91.80;;;;;;5054846;28;20076;-74
2022/11/17 04:59:11;;;;;;;3.85;1.00;;;11.70;91.80;;;;;;5037261;28;20025;-74
2022/11/17 05:01:37;;;;;;;2.33;1.10;;;11.70;91.80;;;;;;5054684;28;20499;-74
2022/11/17 05:04:05;;;;;;;1.95;1.00;;;11.80;91.80;;;;;;5054683;28;20235;-73
2022/11/17 05:06:37;;;;;;;2.60;1.00;;;11.70;91.90;;;;;;5054651;28;20025;-73
2022/11/17 05:09:08;;;;;;;2.83;1.02;;;11.80;91.90;;;;;;5037057;28;20111;-74
2022/11/17 05:14:21;;;;;;;2.00;1.20;;;11.70;92.00;;;;;;5054069;28;20040;-74
2022/11/17 05:17:05;;;;;;;2.45;0.70;;;11.70;92.10;;;;;;5054447;28;20025;-73
2022/11/17 05:19:34;;;;;;;1.30;0.80;;;11.70;92.10;;;;;;5054591;28;20029;-74
2022/11/17 05:22:00;;;;;;;2.78;0.80;;;11.70;92.30;;;;;;5036792;28;20081;-73
2022/11/17 05:24:26;;;;;;;2.75;0.80;;;11.60;92.50;;;;;;5054343;28;20030;-73
2022/11/17 05:26:52;;;;;;;1.25;0.70;;;11.70;92.50;;;;;;5054248;28;20036;-73
2022/11/17 05:29:20;;;;;;;4.03;0.85;;;11.70;92.50;;;;;;5036827;28;20017;-73
2022/11/17 05:31:46;;;;;;;1.45;0.52;;;11.60;92.50;;;;;;5054185;28;20037;-73
2022/11/17 05:34:13;;;;;;;2.70;0.47;;;11.70;92.70;;;;;;5036745;28;20029;-73
2022/11/17 05:36:40;;;;;;;3.88;0.57;;;11.60;92.70;;;;;;5036715;28;20049;-73
2022/11/17 05:39:06;;;;;;;1.95;0.57;;;11.60;92.70;;;;;;5054051;28;20081;-73
2022/11/17 05:41:32;;;;;;;1.27;0.73;;;11.60;92.80;;;;;;5053946;28;20017;-73
2022/11/17 05:43:58;;;;;;;2.10;0.68;;;11.60;92.80;;;;;;5053943;28;20040;-73
2022/11/17 05:46:24;;;;;;;1.58;0.65;;;11.60;92.90;;;;;;5053726;28;20423;-73
2022/11/17 05:48:50;;;;;;;1.83;0.60;;;11.60;92.90;;;;;;5036545;28;20025;-70
2022/11/17 05:51:21;;;;;;;2.58;0.70;;;11.60;93.00;;;;;;5053853;28;20145;-71
2022/11/17 05:53:48;;;;;;;4.40;0.85;;;11.60;93.00;;;;;;5053831;28;20097;-73
2022/11/17 05:56:32;;;;;;;3.35;0.95;;;11.70;93.00;;;;;;5053755;28;20036;-73
2022/11/17 05:59:08;;;;;;;2.63;1.00;;;11.60;93.10;;;;;;5053683;28;20033;-73
2022/11/17 06:01:38;;;;;;;2.08;1.00;;;11.60;93.20;;;;;;5053747;28;20108;-73
2022/11/17 06:04:06;;;;;;;3.15;1.15;;;11.70;92.90;;;;;;5053769;28;20022;-74
2022/11/17 06:06:33;;;;;;;2.92;0.80;;;11.60;93.00;;;;;;5053587;28;20028;-73
2022/11/17 06:08:59;;;;;;;1.55;0.90;;;11.60;93.10;;;;;;5053507;28;20056;-73
2022/11/17 06:11:24;;;;;;;2.92;0.50;;;11.60;93.20;;;;;;5036155;28;20029;-73
2022/11/17 06:13:50;;;;;;;1.98;0.73;;;11.60;93.20;;;;;;5053600;28;20171;-73
2022/11/17 06:16:19;;;;;;;4.53;1.50;;;11.60;93.30;;;;;;5053395;28;20064;-73
2022/11/17 06:18:50;;;;;;;2.92;0.85;;;11.60;93.30;;;;;;5053368;28;20084;-72
2022/11/17 06:21:16;;;;;;;2.60;0.88;;;11.60;93.30;;;;;;5053312;28;20049;-73
2022/11/17 06:23:44;;;;;;;3.35;1.10;;;11.70;93.30;;;;;;5035798;28;20030;-72
2022/11/17 06:26:11;;;;;;;2.92;0.90;;;11.60;93.30;;;;;;5052497;28;20077;-73
2022/11/17 06:28:40;;;;;;;3.80;0.98;;;11.60;93.40;;;;;;5053119;28;20113;-74
2022/11/17 06:31:06;;;;;;;3.60;0.80;;;11.60;93.40;;;;;;5053267;28;20072;-73
2022/11/17 06:33:34;;;;;;;1.75;0.68;;;11.70;93.70;;;;;;5053222;28;20026;-73
2022/11/17 06:36:02;;;;;;;5.70;1.10;;;11.70;93.30;;;;;;5035802;28;20484;-72
2022/11/17 06:38:30;;;;;;;8.05;0.85;;;11.60;93.30;;;;;;5053173;28;20120;-73
2022/11/17 06:40:55;;;;;;;3.72;0.70;;;11.60;92.90;;;;;;5053050;28;20017;-73
2022/11/17 06:43:21;;;;;;;3.42;0.60;;;11.70;93.10;;;;;;5053259;28;20068;-73
2022/11/17 06:45:47;;;;;;;3.38;0.60;;;11.60;92.80;;;;;;5035558;28;20069;-73
2022/11/17 06:48:16;;;;;;;2.95;0.57;;;11.60;92.30;;;;;;5053120;28;20026;-73
2022/11/17 06:50:42;;;;;;;2.83;0.73;;;11.60;92.20;;;;;;5053061;28;20021;-73
2022/11/17 06:53:10;;;;;;;3.03;0.70;;;11.60;92.10;;;;;;5053017;28;20056;-73
2022/11/17 06:55:36;;;;;;;6.50;0.60;;;11.50;92.10;;;;;;5052977;28;20028;-73
2022/11/17 06:58:07;;;;;;;2.55;0.43;;;11.60;92.30;;;;;;5052951;28;20041;-73
2022/11/17 07:00:36;;;;;;;1.02;0.38;;;11.50;92.30;;;;;;5052926;28;20056;-73
2022/11/17 07:03:06;;;;;;;5.90;0.57;;;11.60;92.30;;;;;;5053048;28;20037;-73
2022/11/17 07:05:33;;;;;;;2.13;0.73;;;11.60;92.40;;;;;;5052841;28;20018;-73
2022/11/17 07:08:00;;;;;;;4.38;0.90;;;11.60;92.30;;;;;;5052785;28;20026;-73
2022/11/17 07:10:27;;;;;;;2.85;0.38;;;11.60;92.40;;;;;;5052750;28;20034;-73
2022/11/17 07:12:52;;;;;;;4.15;0.52;;;11.60;92.00;;;;;;5035337;28;20034;-74
2022/11/17 07:15:18;;;;;;;3.78;0.50;;;11.50;92.20;;;;;;5052842;28;20049;-74
2022/11/17 07:17:44;;;;;;;3.47;0.63;;;11.50;92.10;;;;;;5052787;28;20453;-73
2022/11/17 07:20:10;;;;;;;3.42;1.10;;;11.50;92.00;;;;;;5052792;28;20044;-74
2022/11/17 07:22:36;;;;;;;5.25;0.80;;;11.50;91.80;;;;;;5052686;28;20032;-73
2022/11/17 07:25:03;;;;;;;3.80;0.30;;;11.50;92.10;;;;;;5035185;28;20029;-73
2022/11/17 07:27:29;;;;;;;3.92;0.60;;;11.40;91.90;;;;;;5035196;28;20029;-73
2022/11/17 07:29:55;;;;;;;1.38;0.40;;;11.40;92.20;;;;;;5035120;28;20040;-74
2022/11/17 07:32:21;;;;;;;3.58;0.52;;;11.40;92.20;;;;;;5052644;28;20053;-73
2022/11/17 07:34:47;;;;;;;4.00;0.50;;;11.40;92.20;;;;;;5052629;28;20024;-74
2022/11/17 07:37:12;;;;;;;0.95;0.50;;;11.40;92.20;;;;;;5055111;28;20029;-74
2022/11/17 07:39:38;;;;;;;3.33;0.68;;;11.40;92.00;;;;;;5056287;28;20038;-74
2022/11/17 07:42:03;;;;;;;2.08;0.70;;;11.40;92.20;;;;;;5038688;28;20091;-74
2022/11/17 07:44:29;;;;;;;5.72;0.93;;;11.40;92.10;;;;;;5056345;28;20022;-74
2022/11/17 07:46:55;;;;;;;6.78;1.05;;;11.40;92.10;;;;;;5056015;28;20050;-74
2022/11/17 07:49:21;;;;;;;2.17;0.17;;;11.40;91.90;;;;;;5038773;28;20033;-73
2022/11/17 07:51:46;;;;;;;1.73;0.63;;;11.30;91.70;;;;;;5056109;28;20022;-74
2022/11/17 07:54:12;;;;;;;3.25;0.47;;;11.40;92.30;;;;;;5038754;28;20064;-74
2022/11/17 07:56:37;;;;;;;1.92;0.40;;;11.30;92.10;;;;;;5056000;28;20076;-73
2022/11/17 07:59:03;;;;;;;1.45;0.40;;;11.30;92.10;;;;;;5055984;28;20037;-74
2022/11/17 08:01:28;;;;;;;2.97;0.55;;;11.30;92.20;;;;;;5055848;28;20036;-74
2022/11/17 08:03:54;;;;;;;0.85;0.47;;;11.20;92.10;;;;;;5038456;28;20037;-74
2022/11/17 08:06:21;;;;;;;2.08;0.50;;;11.20;92.10;;;;;;5055824;28;20041;-74
2022/11/17 08:08:48;;;;;;;1.38;0.60;;;11.20;92.40;;;;;;5038452;28;20500;-74
2022/11/17 08:11:14;;;;;;;2.67;0.68;;;11.10;92.40;;;;;;5055735;28;20056;-74
2022/11/17 08:13:40;;;;;;;1.38;0.40;;;11.10;92.50;;;;;;5038121;28;20025;-74
2022/11/17 08:16:07;;;;;;;2.42;0.50;;;11.10;92.50;;;;;;5038308;28;20116;-73
2022/11/17 08:18:33;;;;;;;1.55;1.23;;;11.10;92.40;;;;;;5055618;28;20053;-73
2022/11/17 08:21:08;;;;;;;0.55;0.38;;;11.10;92.10;;;;;;5055506;28;20025;-74
2022/11/17 08:23:34;;;;;;;0.47;0.20;;;11.10;92.10;;;;;;5037932;28;20056;-73
2022/11/17 08:26:01;;;;;;;0.98;0.20;;;11.10;92.30;;;;;;5037965;28;20028;-73
2022/11/17 08:28:26;;;;;;;3.65;0.40;;;11.10;92.30;;;;;;5037964;28;20036;-73
2022/11/17 08:30:52;;;;;;;0.55;0.20;;;11.00;92.00;;;;;;5037964;28;20089;-73
2022/11/17 08:33:18;;;;;;;0.93;0.30;;;11.00;92.10;;;;;;5055319;28;20029;-73
2022/11/17 08:35:43;;;;;;;2.08;0.40;;;11.00;91.80;;;;;;5037749;28;20037;-74
2022/11/17 08:38:14;;;;;;;0.65;0.25;;;11.10;91.90;;;;;;5037880;28;20026;-74
2022/11/17 08:40:40;;;;;;;3.40;0.47;;;11.00;91.90;;;;;;5055303;28;20085;-72
2022/11/17 08:43:06;;;;;;;1.35;0.75;;;11.10;92.20;;;;;;5055157;28;20029;-74
2022/11/17 08:45:31;;;;;;;1.35;0.20;;;11.10;92.10;;;;;;5054926;28;20046;-73
2022/11/17 08:47:57;;;;;;;1.85;0.60;;;11.00;91.70;;;;;;5054084;28;20033;-73
2022/11/17 08:50:24;;;;;;;1.48;0.20;;;11.00;91.70;;;;;;5055027;28;20029;-72
2022/11/17 08:52:51;;;;;;;0.65;0.20;;;11.00;91.70;;;;;;5054999;28;20030;-73
2022/11/17 08:55:16;;;;;;;2.38;0.40;;;11.10;91.70;;;;;;5054939;28;20034;-72
2022/11/17 08:57:42;;;;;;;2.25;0.30;;;11.00;91.80;;;;;;5054899;28;20088;-73
2022/11/17 09:00:09;;;;;;;2.15;0.22;;;11.00;92.20;;;;;;5054803;28;20025;-73
2022/11/17 09:02:37;;;;;;;0.40;0.15;;;11.00;91.80;;;;;;5054688;28;20447;-73
2022/11/17 09:05:03;;;;;;;0.40;0.20;;;11.00;92.10;;;;;;5037477;28;20029;-73
2022/11/17 09:07:33;;;;;;;3.13;0.50;;;11.00;92.20;;;;;;5054570;28;20017;-73
2022/11/17 09:09:59;;;;;;;3.70;0.50;;;10.90;92.30;;;;;;5054651;28;20033;-73
2022/11/17 09:12:25;;;;;;;0.50;0.20;;;10.90;92.40;;;;;;5054594;28;20112;-73
2022/11/17 09:14:50;;;;;;;1.67;0.57;;;10.90;92.40;;;;;;5037067;28;20033;-73
2022/11/17 09:17:16;;;;;;;1.23;0.13;;;10.90;92.30;;;;;;5054512;28;20033;-73
2022/11/17 09:19:41;;;;;;;1.08;0.40;;;10.90;92.20;;;;;;5037062;28;20041;-72
2022/11/17 09:22:07;;;;;;;5.50;0.73;;;10.80;92.30;;;;;;5036918;28;20018;-72
2022/11/17 09:24:33;;;;;;;0.60;0.20;;;10.80;92.10;;;;;;5054490;28;20479;-72
2022/11/17 09:26:58;;;;;;;2.65;0.38;;;10.80;92.10;;;;;;5036925;28;20055;-73
2022/11/17 09:29:24;;;;;;;2.95;0.40;;;10.80;92.20;;;;;;5054257;28;20037;-72
2022/11/17 09:31:49;;;;;;;1.65;0.30;;;10.80;92.10;;;;;;5054227;28;20044;-73
2022/11/17 09:34:16;;;;;;;3.15;0.68;;;10.80;92.30;;;;;;5054175;28;20037;-73
2022/11/17 09:36:41;;;;;;;0.20;0.10;;;10.80;92.20;;;;;;5054138;28;20057;-73
2022/11/17 09:39:07;;;;;;;0.43;0.30;;;10.80;92.20;;;;;;5054207;28;20029;-73
2022/11/17 09:41:38;;;;;;;2.28;0.40;;;10.80;92.10;;;;;;5053969;28;20034;-73
2022/11/17 09:44:09;;;;;;;2.67;0.50;;;10.80;92.10;;;;;;5036526;28;20029;-73
2022/11/17 09:46:50;;;;;;;1.17;0.35;;;10.80;92.00;;;;;;5036286;28;20108;-73
2022/11/17 09:49:40;;;;;;;3.05;0.50;;;10.80;91.70;;;;;;5036461;28;20022;-73
2022/11/17 09:52:18;;;;;;;1.23;0.30;;;10.80;91.80;;;;;;5053879;28;20056;-73
2022/11/17 09:54:55;;;;;;;0.50;0.30;;;10.90;91.70;;;;;;5054003;28;20117;-73
2022/11/17 09:57:34;;;;;;;0.22;0.20;;;10.90;91.80;;;;;;5053760;28;20056;-73
2022/11/17 10:00:05;;;;;;;0.82;0.40;;;10.90;91.60;;;;;;5053722;28;20017;-73
2022/11/17 10:02:31;;;;;;;0.13;0.13;;;11.00;91.40;;;;;;5053586;28;20030;-73
2022/11/17 10:04:58;;;;;;;0.32;0.10;;;11.00;91.50;;;;;;5053649;28;20035;-73
2022/11/17 10:07:25;;;;;;;2.95;0.55;;;11.10;91.50;;;;;;5036283;28;20037;-73
2022/11/17 10:09:53;;;;;;;1.98;0.45;;;11.20;91.40;;;;;;5053547;28;20033;-73
2022/11/17 10:12:21;;;;;;;1.58;0.30;;;11.20;91.00;;;;;;5035972;28;20030;-73
2022/11/17 10:14:51;;;;;;;1.35;0.40;;;11.40;91.20;;;;;;5036075;28;20080;-73
2022/11/17 10:17:16;;;;;;;0.95;0.40;;;11.50;90.00;;;;;;5053456;28;20030;-73
2022/11/17 10:19:44;;;;;;;0.57;0.30;;;11.60;90.90;;;;;;5053413;28;20029;-73
2022/11/17 10:22:15;;;;;;;1.08;0.22;;;11.70;90.30;;;;;;5053330;28;20026;-72
2022/11/17 10:24:49;;;;;;;1.17;0.47;;;11.70;88.80;;;;;;5053443;28;20060;-73
2022/11/17 10:27:30;;;;;;;0.30;0.17;;;11.80;89.60;;;;;;5035877;28;20041;-73
2022/11/17 10:30:06;;;;;;;2.45;0.40;;;11.80;88.30;;;;;;5053302;28;20018;-73
2022/11/17 10:32:36;;;;;;;2.90;0.55;;;11.80;88.10;;;;;;5053270;28;20025;-73
2022/11/17 10:35:32;;;;;;;0.95;0.30;;;11.90;88.20;;;;;;5053225;28;20022;-73
2022/11/17 10:38:07;;;;;;;1.15;0.30;;;11.90;88.10;;;;;;5016409;28;20493;-73
2022/11/17 10:40:53;;;;;;;0.35;0.20;;;11.90;87.90;;;;;;5053206;28;20369;-73
2022/11/17 10:43:25;;;;;;;1.15;0.28;;;12.00;88.10;;;;;;5053069;28;20021;-73
2022/11/17 10:45:57;;;;;;;3.33;0.47;;;12.00;87.40;;;;;;5053018;28;20045;-73
2022/11/17 10:48:34;;;;;;;0.52;0.10;;;12.00;87.40;;;;;;5053092;28;20014;-73
2022/11/17 10:51:08;;;;;;;1.27;0.45;;;12.10;86.50;;;;;;5053118;28;20028;-73
2022/11/17 10:53:35;;;;;;;1.88;0.30;;;12.10;84.90;;;;;;5035629;28;20025;-73
2022/11/17 10:56:18;;;;;;;0.95;0.30;;;12.20;85.90;;;;;;5053027;28;20047;-73
2022/11/17 10:59:02;;;;;;;1.42;0.35;;;12.20;85.30;;;;;;5051908;28;20029;-73
2022/11/17 11:01:34;;;;;;;11.90;0.88;;;12.20;83.00;;;;;;5053051;28;20033;-73
2022/11/17 11:04:01;;;;;;;0.43;0.20;;;12.20;83.20;;;;;;5052023;28;20017;-74
2022/11/17 11:06:29;;;;;;;2.25;0.20;;;12.20;83.10;;;;;;5052942;28;20060;-73
2022/11/17 11:09:10;;;;;;;0.50;0.22;;;12.30;83.00;;;;;;5052795;28;20113;-73
2022/11/17 11:11:48;;;;;;;1.60;0.40;;;12.30;82.80;;;;;;5054544;28;20026;-73
2022/11/17 11:14:35;;;;;;;1.10;0.20;;;12.30;82.60;;;;;;5056797;28;20041;-73
2022/11/17 11:17:10;;;;;;;2.20;0.63;;;12.30;82.50;;;;;;5056802;28;20026;-73
2022/11/17 11:19:36;;;;;;;1.88;0.30;;;12.30;82.60;;;;;;5056777;28;20048;-73
2022/11/17 11:22:21;;;;;;;2.00;0.50;;;12.30;83.10;;;;;;5056645;28;20034;-72
2022/11/17 11:24:51;;;;;;;0.70;0.30;;;12.30;82.00;;;;;;5056633;28;20083;-73
2022/11/17 11:27:50;;;;;;;1.15;0.32;;;12.30;81.70;;;;;;5056792;28;20021;-73
2022/11/17 11:30:17;;;;;;;0.65;0.28;;;12.20;82.30;;;;;;5056696;28;20021;-73
2022/11/17 11:33:13;;;;;;;1.58;0.32;;;12.20;82.20;;;;;;5056476;28;20034;-73
2022/11/17 11:35:58;;;;;;;0.45;0.20;;;12.20;82.60;;;;;;5056609;28;20030;-73
2022/11/17 11:38:40;;;;;;;1.65;0.35;;;12.10;82.10;;;;;;5056482;28;20076;-73
2022/11/17 11:41:27;;;;;;;6.30;0.47;;;12.10;84.40;;;;;;5056462;28;20026;-73
2022/11/17 11:44:01;;;;;;;0.77;0.30;;;12.10;83.10;;;;;;5056439;28;20257;-73
2022/11/17 11:46:49;;;;;;;6.32;0.88;;;12.10;83.50;;;;;;5038453;28;20042;-73
2022/11/17 11:49:49;;;;;;;0.63;0.30;;;12.10;82.80;;;;;;5038627;28;20056;-73
2022/11/17 11:52:19;;;;;;;1.08;0.40;;;12.10;83.50;;;;;;5056154;28;20040;-73
2022/11/17 11:55:14;;;;;;;0.20;0.20;;;12.10;83.50;;;;;;5056112;28;20051;-73
2022/11/17 11:57:45;;;;;;;2.08;0.50;;;12.20;82.00;;;;;;5042729;28;20037;-73
2022/11/17 12:00:16;;;;;;;2.22;0.30;;;12.20;82.40;;;;;;5056051;28;20052;-73
2022/11/17 12:03:00;;;;;;;1.13;0.40;;;12.20;82.90;;;;;;5055857;28;20030;-73
2022/11/17 12:05:48;;;;;;;2.42;0.43;;;12.20;81.30;;;;;;5056061;28;20022;-73
2022/11/17 12:08:37;;;;;;;2.95;0.50;;;12.20;82.10;;;;;;5055783;28;20038;-73
2022/11/17 12:13:59;;;;;;;1.02;0.30;;;12.10;81.60;;;;;;5055980;28;20037;-73
2022/11/17 12:16:29;;;;;;;1.42;0.40;;;12.20;83.10;;;;;;5038275;28;20101;-73
2022/11/17 12:18:57;;;;;;;1.85;0.30;;;12.20;81.90;;;;;;5055751;28;20026;-73
2022/11/17 12:21:24;;;;;;;2.22;0.40;;;12.20;80.90;;;;;;5055566;28;20025;-73
2022/11/17 12:24:11;;;;;;;1.17;0.25;;;12.20;80.90;;;;;;5055512;28;20066;-73
2022/11/17 12:26:37;;;;;;;2.30;0.38;;;12.20;80.60;;;;;;5038019;28;20025;-73
2022/11/17 12:29:21;;;;;;;3.03;0.50;;;12.20;80.90;;;;;;5037893;28;20032;-73
2022/11/17 12:31:48;;;;;;;0.77;0.20;;;12.20;80.30;;;;;;5055381;28;20081;-73
2022/11/17 12:34:29;;;;;;;0.60;0.30;;;12.20;81.00;;;;;;5055301;28;20041;-73
2022/11/17 12:37:17;;;;;;;2.20;0.47;;;12.20;81.00;;;;;;5055341;28;20053;-73
2022/11/17 12:40:00;;;;;;;0.45;0.25;;;12.20;81.00;;;;;;5037692;28;20037;-73
2022/11/17 12:42:31;;;;;;;0.47;0.20;;;12.20;80.90;;;;;;5055058;28;20036;-73
2022/11/17 12:45:12;;;;;;;1.65;0.40;;;12.20;80.80;;;;;;5055151;28;20041;-73
2022/11/17 12:47:46;;;;;;;0.52;0.40;;;12.20;80.80;;;;;;5054855;28;20041;-73
2022/11/17 12:50:31;;;;;;;1.38;0.20;;;12.20;82.00;;;;;;5055095;28;20029;-73
2022/11/17 12:53:06;;;;;;;1.35;0.65;;;12.20;82.40;;;;;;5037451;28;20044;-73
2022/11/17 12:55:31;;;;;;;1.02;0.43;;;12.10;82.90;;;;;;5037445;28;20025;-73
2022/11/17 12:58:05;;;;;;;2.72;0.52;;;12.10;82.60;;;;;;5054901;28;20037;-72
2022/11/17 13:00:43;;;;;;;2.45;0.93;;;12.10;82.00;;;;;;5055031;28;20021;-73
2022/11/17 13:03:20;;;;;;;0.43;0.30;;;12.10;82.30;;;;;;5054824;28;20037;-73
2022/11/17 13:06:08;;;;;;;3.15;0.60;;;12.10;82.90;;;;;;5037299;28;20543;-73
2022/11/17 13:08:34;;;;;;;3.10;0.40;;;12.10;83.30;;;;;;5054642;28;20081;-73
2022/11/17 13:11:18;;;;;;;1.48;0.80;;;12.00;84.00;;;;;;5054620;28;20032;-73
2022/11/17 13:13:43;;;;;;;0.60;0.30;;;12.00;84.20;;;;;;5054634;28;20056;-73
2022/11/17 13:16:20;;;;;;;0.65;0.40;;;12.00;84.10;;;;;;5054552;28;20029;-73
2022/11/17 13:18:47;;;;;;;0.90;0.50;;;12.00;84.50;;;;;;5054534;28;20029;-73
2022/11/17 13:21:24;;;;;;;2.47;0.47;;;12.00;84.80;;;;;;5054372;28;20077;-73
2022/11/17 13:23:51;;;;;;;0.47;0.40;;;12.00;84.10;;;;;;5036908;28;20033;-73
2022/11/17 13:26:36;;;;;;;0.70;0.30;;;12.00;85.10;;;;;;5037111;28;20052;-73
2022/11/17 13:29:12;;;;;;;0.20;0.20;;;12.00;84.90;;;;;;5054357;28;20034;-73
2022/11/17 13:31:37;;;;;;;1.45;0.35;;;12.00;83.90;;;;;;5054435;28;20021;-73